createdAt,value
2018-03-06T00:01:45.093Z,15.67
2018-03-06T00:04:11.761Z,15.52
2018-03-06T00:06:38.614Z,15.54
2018-03-06T00:09:05.348Z,15.58
2018-03-06T00:11:32.151Z,15.59
2018-03-06T00:13:58.818Z,15.57
2018-03-06T00:16:24.697Z,15.55
2018-03-06T00:18:51.352Z,15.48
2018-03-06T00:21:17.226Z,15.47
2018-03-06T00:23:43.134Z,15.47
2018-03-06T00:26:08.978Z,15.46
2018-03-06T00:28:35.806Z,15.59
2018-03-06T00:31:01.685Z,15.63
2018-03-06T00:33:27.526Z,15.53
2018-03-06T00:35:54.216Z,15.59
2018-03-06T00:38:20.053Z,15.50
2018-03-06T00:40:45.902Z,15.48
2018-03-06T00:43:11.757Z,15.48
2018-03-06T00:45:37.591Z,15.51
2018-03-06T00:48:03.448Z,15.47
2018-03-06T00:50:29.303Z,15.43
2018-03-06T00:52:55.137Z,15.53
2018-03-06T00:55:21.001Z,15.46
2018-03-06T00:57:46.846Z,15.45
2018-03-06T01:00:12.682Z,15.50
2018-03-06T01:02:45.555Z,15.36
2018-03-06T01:05:11.409Z,15.42
2018-03-06T01:07:37.275Z,15.41
2018-03-06T01:10:03.132Z,15.50
2018-03-06T01:12:28.973Z,15.47
2018-03-06T01:14:55.810Z,15.49
2018-03-06T01:17:22.581Z,15.44
2018-03-06T01:19:48.413Z,15.50
2018-03-06T01:22:15.060Z,15.42
2018-03-06T01:24:40.901Z,15.50
2018-03-06T01:27:06.754Z,15.46
2018-03-06T01:29:32.607Z,15.48
2018-03-06T01:31:58.490Z,15.56
2018-03-06T01:34:24.338Z,15.57
2018-03-06T01:36:50.202Z,15.40
2018-03-06T01:39:16.026Z,15.43
2018-03-06T01:41:41.907Z,15.35
2018-03-06T01:44:07.733Z,15.39
2018-03-06T01:46:34.558Z,15.40
2018-03-06T01:49:00.390Z,15.56
2018-03-06T01:51:26.262Z,15.56
2018-03-06T01:53:52.110Z,15.52
2018-03-06T01:56:18.764Z,15.66
2018-03-06T01:58:44.609Z,15.57
2018-03-06T02:01:10.449Z,15.35
2018-03-06T02:03:37.191Z,15.39
2018-03-06T02:06:03.046Z,15.50
2018-03-06T02:08:29.034Z,15.37
2018-03-06T02:10:54.929Z,15.36
2018-03-06T02:13:20.751Z,15.46
2018-03-06T02:15:46.587Z,15.51
2018-03-06T02:18:12.498Z,15.49
2018-03-06T02:20:39.236Z,15.53
2018-03-06T02:23:05.126Z,15.51
2018-03-06T02:25:32.014Z,15.49
2018-03-06T02:27:57.838Z,15.24
2018-03-06T02:30:23.690Z,15.32
2018-03-06T02:32:49.513Z,15.36
2018-03-06T02:35:15.372Z,15.39
2018-03-06T02:37:41.246Z,15.57
2018-03-06T02:40:07.147Z,15.45
2018-03-06T02:42:32.974Z,15.58
2018-03-06T02:44:58.843Z,15.42
2018-03-06T02:47:24.677Z,15.30
2018-03-06T02:49:50.526Z,15.39
2018-03-06T02:52:16.350Z,15.43
2018-03-06T02:54:42.235Z,15.43
2018-03-06T02:57:08.102Z,15.50
2018-03-06T02:59:33.966Z,15.41
2018-03-06T03:01:59.830Z,15.43
2018-03-06T03:04:25.662Z,15.37
2018-03-06T03:06:51.515Z,15.44
2018-03-06T03:09:17.372Z,15.48
2018-03-06T03:11:44.047Z,15.45
2018-03-06T03:14:09.885Z,15.40
2018-03-06T03:16:35.755Z,15.38
2018-03-06T03:19:02.554Z,15.46
2018-03-06T03:21:29.373Z,15.43
2018-03-06T03:23:55.257Z,15.43
2018-03-06T03:26:21.922Z,15.40
2018-03-06T03:28:47.766Z,15.32
2018-03-06T03:31:14.522Z,15.43
2018-03-06T03:33:41.129Z,15.40
2018-03-06T03:36:07.901Z,15.39
2018-03-06T03:38:33.770Z,15.41
2018-03-06T03:40:59.608Z,15.48
2018-03-06T03:43:25.469Z,15.44
2018-03-06T03:45:51.722Z,15.33
2018-03-06T03:48:17.563Z,15.36
2018-03-06T03:50:43.418Z,15.36
2018-03-06T03:53:10.190Z,15.40
2018-03-06T03:55:36.010Z,15.44
2018-03-06T03:58:02.695Z,15.43
2018-03-06T04:00:29.544Z,15.41
2018-03-06T04:02:56.302Z,15.35
2018-03-06T04:05:22.167Z,15.35
2018-03-06T04:07:48.939Z,15.35
2018-03-06T04:10:14.829Z,15.44
2018-03-06T04:12:41.489Z,15.38
2018-03-06T04:15:07.354Z,15.38
2018-03-06T04:17:33.196Z,15.36
2018-03-06T04:19:59.902Z,15.31
2018-03-06T04:22:26.683Z,15.39
2018-03-06T04:24:52.514Z,15.45
2018-03-06T04:27:18.367Z,15.40
2018-03-06T04:29:44.209Z,15.35
2018-03-06T04:32:11.128Z,15.34
2018-03-06T04:34:37.767Z,15.50
2018-03-06T04:37:04.558Z,15.49
2018-03-06T04:39:30.403Z,15.35
2018-03-06T04:41:56.248Z,15.32
2018-03-06T04:44:22.083Z,15.33
2018-03-06T04:46:47.911Z,15.30
2018-03-06T04:49:13.757Z,15.36
2018-03-06T04:51:40.454Z,15.40
2018-03-06T04:54:07.247Z,15.33
2018-03-06T04:56:33.813Z,15.37
2018-03-06T04:58:59.681Z,15.29
2018-03-06T05:01:25.516Z,15.26
2018-03-06T05:03:52.355Z,15.22
2018-03-06T05:06:19.002Z,15.21
2018-03-06T05:08:44.867Z,15.29
2018-03-06T05:11:11.824Z,15.17
2018-03-06T05:13:37.686Z,15.22
2018-03-06T05:16:03.666Z,15.42
2018-03-06T05:18:29.554Z,15.42
2018-03-06T05:20:56.364Z,15.47
2018-03-06T05:23:23.057Z,15.31
2018-03-06T05:25:48.885Z,15.28
2018-03-06T05:28:14.727Z,15.35
2018-03-06T05:30:40.559Z,15.42
2018-03-06T05:33:06.378Z,15.43
2018-03-06T05:35:32.219Z,15.41
2018-03-06T05:37:58.062Z,15.41
2018-03-06T05:40:23.915Z,15.46
2018-03-06T05:42:49.746Z,15.24
2018-03-06T05:45:15.615Z,15.31
2018-03-06T05:47:41.462Z,15.28
2018-03-06T05:50:08.369Z,15.32
2018-03-06T05:52:34.363Z,15.39
2018-03-06T05:55:00.195Z,15.31
2018-03-06T05:57:26.071Z,15.25
2018-03-06T05:59:51.955Z,15.39
2018-03-06T06:02:17.837Z,15.37
2018-03-06T06:04:44.738Z,15.38
2018-03-06T06:07:10.582Z,15.28
2018-03-06T06:09:36.481Z,15.33
2018-03-06T06:12:03.514Z,15.35
2018-03-06T06:14:30.398Z,15.43
2018-03-06T06:16:56.239Z,15.40
2018-03-06T06:19:22.059Z,15.35
2018-03-06T06:21:47.900Z,15.35
2018-03-06T06:24:13.793Z,15.33
2018-03-06T06:26:39.619Z,15.38
2018-03-06T06:29:05.531Z,15.37
2018-03-06T06:31:31.598Z,15.34
2018-03-06T06:33:57.462Z,15.43
2018-03-06T06:36:24.058Z,15.42
2018-03-06T06:38:50.915Z,15.38
2018-03-06T06:41:16.767Z,15.53
2018-03-06T06:43:42.639Z,15.53
2018-03-06T06:46:08.499Z,15.47
2018-03-06T06:48:34.326Z,15.37
2018-03-06T06:51:01.024Z,15.52
2018-03-06T06:53:26.935Z,15.51
2018-03-06T06:55:53.050Z,15.55
2018-03-06T06:58:18.878Z,15.58
2018-03-06T07:00:44.751Z,15.59
2018-03-06T07:03:11.177Z,15.58
2018-03-06T07:05:36.997Z,15.63
2018-03-06T07:08:02.806Z,15.39
2018-03-06T07:10:28.631Z,15.51
2018-03-06T07:12:54.505Z,15.47
2018-03-06T07:15:20.324Z,15.50
2018-03-06T07:17:46.136Z,15.54
2018-03-06T07:20:11.944Z,15.57
2018-03-06T07:22:37.895Z,15.54
2018-03-06T07:25:04.610Z,15.62
2018-03-06T07:27:30.417Z,15.51
2018-03-06T07:29:57.225Z,15.58
2018-03-06T07:32:23.036Z,15.47
2018-03-06T07:34:48.849Z,15.60
2018-03-06T07:37:14.666Z,15.67
2018-03-06T07:39:40.514Z,15.56
2018-03-06T07:42:06.347Z,15.66
2018-03-06T07:44:32.171Z,15.53
2018-03-06T07:46:58.849Z,15.45
2018-03-06T07:49:24.757Z,15.54
2018-03-06T07:51:51.522Z,15.49
2018-03-06T07:54:18.344Z,15.52
2018-03-06T07:56:44.151Z,15.57
2018-03-06T07:59:09.957Z,15.48
2018-03-06T08:01:35.759Z,15.60
2018-03-06T08:04:02.506Z,15.67
2018-03-06T08:06:28.366Z,15.48
2018-03-06T08:08:54.190Z,15.52
2018-03-06T08:11:20.039Z,15.43
2018-03-06T08:13:46.762Z,15.50
2018-03-06T08:16:13.480Z,15.47
2018-03-06T08:18:40.233Z,15.48
2018-03-06T08:21:06.963Z,15.56
2018-03-06T08:23:32.773Z,15.47
2018-03-06T08:25:58.614Z,15.53
2018-03-06T08:28:25.202Z,15.65
2018-03-06T08:30:51.921Z,15.57
2018-03-06T08:33:17.750Z,15.63
2018-03-06T08:35:44.366Z,15.57
2018-03-06T08:38:11.113Z,15.56
2018-03-06T08:40:37.898Z,15.64
2018-03-06T08:43:04.722Z,15.66
2018-03-06T08:45:30.533Z,15.58
2018-03-06T08:47:56.493Z,15.59
2018-03-06T08:50:22.315Z,15.60
2018-03-06T08:52:48.130Z,15.69
2018-03-06T08:55:13.970Z,15.55
2018-03-06T08:57:39.781Z,15.66
2018-03-06T09:00:05.591Z,15.70
2018-03-06T09:02:31.413Z,15.62
2018-03-06T09:04:57.225Z,15.60
2018-03-06T09:07:23.072Z,15.54
2018-03-06T09:09:48.886Z,15.64
2018-03-06T09:12:14.750Z,15.61
2018-03-06T09:14:40.551Z,15.51
2018-03-06T09:17:06.383Z,15.57
2018-03-06T09:19:32.268Z,15.65
2018-03-06T09:21:59.010Z,15.64
2018-03-06T09:24:25.847Z,15.72
2018-03-06T09:26:51.586Z,15.73
2018-03-06T09:29:18.344Z,15.61
2018-03-06T09:31:44.155Z,15.61
2018-03-06T09:34:10.035Z,15.66
2018-03-06T09:36:35.850Z,15.71
2018-03-06T09:39:02.331Z,15.73
2018-03-06T09:41:29.110Z,15.76
2018-03-06T09:43:54.914Z,15.69
2018-03-06T09:46:21.678Z,15.69
2018-03-06T09:48:48.462Z,15.70
2018-03-06T09:51:14.266Z,15.84
2018-03-06T09:53:40.081Z,15.93
2018-03-06T09:56:05.890Z,15.84
2018-03-06T09:58:31.698Z,15.81
2018-03-06T10:00:57.508Z,15.76
2018-03-06T10:03:23.314Z,15.92
2018-03-06T10:05:49.122Z,15.82
2018-03-06T10:08:14.926Z,15.88
2018-03-06T10:10:40.746Z,15.97
2018-03-06T10:13:07.571Z,15.98
2018-03-06T10:15:33.421Z,15.88
2018-03-06T10:17:59.266Z,15.94
2018-03-06T10:20:25.077Z,15.87
2018-03-06T10:22:50.926Z,15.96
2018-03-06T10:25:16.789Z,15.97
2018-03-06T10:27:42.612Z,15.90
2018-03-06T10:30:08.457Z,15.85
2018-03-06T10:32:34.294Z,15.90
2018-03-06T10:35:00.107Z,15.98
2018-03-06T10:37:25.952Z,15.81
2018-03-06T10:39:52.734Z,15.87
2018-03-06T10:42:19.502Z,15.91
2018-03-06T10:44:46.156Z,15.93
2018-03-06T10:47:12.922Z,15.95
2018-03-06T10:49:39.826Z,15.94
2018-03-06T10:52:06.571Z,15.95
2018-03-06T10:54:32.421Z,15.95
2018-03-06T10:56:59.122Z,16.04
2018-03-06T10:59:25.867Z,15.94
2018-03-06T11:01:56.686Z,15.80
2018-03-06T11:04:23.525Z,15.91
2018-03-06T11:06:50.370Z,15.89
2018-03-06T11:09:17.166Z,16.03
2018-03-06T11:11:43.006Z,15.91
2018-03-06T11:14:09.671Z,15.97
2018-03-06T11:16:36.483Z,15.95
2018-03-06T11:19:02.294Z,15.87
2018-03-06T11:21:28.927Z,15.90
2018-03-06T11:23:55.654Z,15.98
2018-03-06T11:26:21.454Z,15.97
2018-03-06T11:28:48.238Z,15.99
2018-03-06T11:31:14.042Z,15.98
2018-03-06T11:33:41.463Z,15.87
2018-03-06T11:36:07.273Z,15.97
2018-03-06T11:38:33.114Z,15.99
2018-03-06T11:40:58.967Z,15.91
2018-03-06T11:43:25.586Z,15.91
2018-03-06T11:45:51.434Z,15.96
2018-03-06T11:48:17.248Z,15.96
2018-03-06T11:50:43.058Z,16.07
2018-03-06T11:53:09.841Z,16.01
2018-03-06T11:55:36.679Z,15.94
2018-03-06T11:58:02.489Z,16.05
2018-03-06T12:00:29.130Z,16.04
2018-03-06T12:02:54.935Z,16.05
2018-03-06T12:05:20.742Z,16.15
2018-03-06T12:07:46.547Z,16.06
2018-03-06T12:10:13.282Z,16.14
2018-03-06T12:12:39.134Z,16.15
2018-03-06T12:15:05.807Z,16.25
2018-03-06T12:17:31.622Z,16.10
2018-03-06T12:19:58.414Z,16.17
2018-03-06T12:22:24.223Z,16.20
2018-03-06T12:24:50.035Z,16.19
2018-03-06T12:27:16.622Z,16.21
2018-03-06T12:29:42.430Z,16.11
2018-03-06T12:32:09.226Z,16.05
2018-03-06T12:34:35.986Z,16.11
2018-03-06T12:37:02.811Z,16.13
2018-03-06T12:39:28.618Z,16.18
2018-03-06T12:41:54.425Z,16.16
2018-03-06T12:44:21.042Z,16.20
2018-03-06T12:46:47.794Z,16.14
2018-03-06T12:49:13.650Z,16.12
2018-03-06T12:51:39.458Z,16.09
2018-03-06T12:54:05.265Z,16.14
2018-03-06T12:56:31.156Z,16.18
2018-03-06T12:58:56.970Z,16.26
2018-03-06T13:01:22.777Z,16.19
2018-03-06T13:03:49.574Z,16.13
2018-03-06T13:06:16.323Z,16.13
2018-03-06T13:08:42.135Z,16.13
2018-03-06T13:11:08.840Z,16.17
2018-03-06T13:13:34.652Z,16.13
2018-03-06T13:16:00.463Z,16.08
2018-03-06T13:18:26.274Z,16.14
2018-03-06T13:20:53.093Z,16.07
2018-03-06T13:23:18.904Z,15.99
2018-03-06T13:25:44.714Z,16.16
2018-03-06T13:28:10.522Z,16.14
2018-03-06T13:30:36.330Z,16.08
2018-03-06T13:33:02.182Z,16.06
2018-03-06T13:35:27.994Z,16.12
2018-03-06T13:37:53.842Z,16.17
2018-03-06T13:40:20.506Z,16.10
2018-03-06T13:42:47.353Z,16.15
2018-03-06T13:45:13.162Z,16.01
2018-03-06T13:47:38.974Z,16.08
2018-03-06T13:50:04.778Z,16.14
2018-03-06T13:52:30.581Z,16.13
2018-03-06T13:54:56.394Z,16.04
2018-03-06T13:57:22.206Z,16.11
2018-03-06T13:59:48.110Z,15.99
2018-03-06T14:02:13.903Z,16.12
2018-03-06T14:04:39.709Z,16.06
2018-03-06T14:07:05.519Z,16.16
2018-03-06T14:09:31.330Z,16.21
2018-03-06T14:11:57.139Z,16.18
2018-03-06T14:14:22.947Z,16.27
2018-03-06T14:16:48.761Z,16.25
2018-03-06T14:19:14.562Z,16.22
2018-03-06T14:21:40.374Z,16.14
2018-03-06T14:24:06.198Z,16.10
2018-03-06T14:26:32.012Z,16.19
2018-03-06T14:28:57.827Z,16.24
2018-03-06T14:31:24.446Z,16.11
2018-03-06T14:33:50.249Z,16.11
2018-03-06T14:36:16.058Z,16.08
2018-03-06T14:38:42.809Z,16.21
2018-03-06T14:41:09.557Z,16.23
2018-03-06T14:43:36.443Z,16.21
2018-03-06T14:46:02.258Z,16.04
2018-03-06T14:48:29.100Z,16.08
2018-03-06T14:50:55.863Z,16.10
2018-03-06T14:53:21.753Z,16.04
2018-03-06T14:55:47.630Z,16.12
2018-03-06T14:58:14.524Z,16.17
2018-03-06T15:00:40.332Z,15.99
2018-03-06T15:03:06.177Z,15.84
2018-03-06T15:05:32.981Z,16.02
2018-03-06T15:07:59.593Z,16.00
2018-03-06T15:10:25.454Z,15.99
2018-03-06T15:12:51.258Z,15.97
2018-03-06T15:15:17.909Z,15.79
2018-03-06T15:17:43.709Z,15.88
2018-03-06T15:20:09.550Z,15.93
2018-03-06T15:22:36.146Z,15.92
2018-03-06T15:25:02.002Z,15.90
2018-03-06T15:27:27.831Z,15.82
2018-03-06T15:29:53.650Z,15.65
2018-03-06T15:32:19.457Z,15.86
2018-03-06T15:34:45.261Z,15.89
2018-03-06T15:37:11.070Z,15.73
2018-03-06T15:39:36.890Z,15.82
2018-03-06T15:42:02.742Z,15.71
2018-03-06T15:44:28.553Z,15.71
2018-03-06T15:46:55.351Z,15.65
2018-03-06T15:49:21.291Z,15.81
2018-03-06T15:51:48.110Z,15.98
2018-03-06T15:54:13.910Z,15.93
2018-03-06T15:56:39.717Z,15.86
2018-03-06T15:59:05.526Z,15.94
2018-03-06T16:01:32.141Z,15.93
2018-03-06T16:03:57.954Z,15.89
2018-03-06T16:06:24.578Z,15.95
2018-03-06T16:08:51.433Z,15.94
2018-03-06T16:11:17.242Z,15.88
2018-03-06T16:13:43.096Z,15.97
2018-03-06T16:16:08.910Z,15.98
2018-03-06T16:18:34.754Z,15.97
2018-03-06T16:21:01.427Z,16.11
2018-03-06T16:23:29.254Z,16.00
2018-03-06T16:25:56.037Z,16.00
2018-03-06T16:28:28.615Z,16.00
2018-03-06T16:33:40.357Z,15.85
2018-03-06T16:36:06.162Z,15.95
2018-03-06T16:38:32.973Z,16.01
2018-03-06T16:40:58.788Z,16.01
2018-03-06T16:43:25.450Z,16.00
2018-03-06T16:45:51.258Z,15.84
2018-03-06T16:48:17.078Z,15.84
2018-03-06T16:50:43.055Z,15.78
2018-03-06T16:53:08.887Z,15.93
2018-03-06T16:55:34.694Z,15.86
2018-03-06T16:58:00.530Z,15.88
2018-03-06T17:00:26.501Z,16.05
2018-03-06T17:02:52.358Z,15.98
2018-03-06T17:05:18.178Z,16.01
2018-03-06T17:07:45.075Z,16.04
2018-03-06T17:10:10.929Z,16.04
2018-03-06T17:12:36.891Z,16.01
2018-03-06T17:15:03.670Z,16.06
2018-03-06T17:17:29.493Z,16.01
2018-03-06T17:19:56.183Z,16.09
2018-03-06T17:22:22.922Z,16.05
2018-03-06T17:24:48.756Z,15.98
2018-03-06T17:27:14.589Z,15.94
2018-03-06T17:29:40.423Z,15.90
2018-03-06T17:32:06.461Z,16.00
2018-03-06T17:34:32.290Z,15.96
2018-03-06T17:36:58.136Z,16.07
2018-03-06T17:39:24.056Z,15.96
2018-03-06T17:41:49.881Z,15.96
2018-03-06T17:44:15.690Z,15.89
2018-03-06T17:46:42.531Z,15.85
2018-03-06T17:49:08.355Z,16.00
2018-03-06T17:51:35.031Z,15.96
2018-03-06T17:54:01.771Z,15.96
2018-03-06T17:56:27.613Z,16.02
2018-03-06T17:58:53.415Z,16.03
2018-03-06T18:01:19.294Z,15.98
2018-03-06T18:03:45.107Z,15.88
2018-03-06T18:06:11.043Z,15.95
2018-03-06T18:08:36.964Z,15.88
2018-03-06T18:11:02.891Z,15.85
2018-03-06T18:13:28.705Z,15.90
2018-03-06T18:15:54.536Z,15.90
2018-03-06T18:18:22.611Z,15.94
2018-03-06T18:20:48.418Z,15.93
2018-03-06T18:23:14.271Z,15.81
2018-03-06T18:25:40.144Z,15.84
2018-03-06T18:28:05.954Z,15.82
2018-03-06T18:30:31.774Z,15.85
2018-03-06T18:32:57.681Z,15.90
2018-03-06T18:35:23.813Z,15.85
2018-03-06T18:37:49.654Z,15.79
2018-03-06T18:40:15.457Z,15.87
2018-03-06T18:42:41.921Z,15.95
2018-03-06T18:45:07.766Z,15.80
2018-03-06T18:47:33.662Z,15.78
2018-03-06T18:50:00.591Z,15.88
2018-03-06T18:52:26.402Z,15.94
2018-03-06T18:54:52.215Z,15.91
2018-03-06T18:57:18.059Z,15.99
2018-03-06T18:59:43.913Z,15.93
2018-03-06T19:02:15.922Z,15.95
2018-03-06T19:04:48.536Z,15.96
2018-03-06T19:07:14.346Z,15.88
2018-03-06T19:09:40.319Z,15.93
2018-03-06T19:12:06.203Z,15.93
2018-03-06T19:14:32.014Z,15.91
2018-03-06T19:16:57.883Z,15.83
2018-03-06T19:19:23.697Z,15.93
2018-03-06T19:21:49.565Z,15.92
2018-03-06T19:24:15.385Z,15.89
2018-03-06T19:26:41.203Z,15.90
2018-03-06T19:29:07.029Z,15.89
2018-03-06T19:31:33.670Z,15.81
2018-03-06T19:34:00.394Z,15.93
2018-03-06T19:36:26.229Z,15.93
2018-03-06T19:38:52.050Z,16.05
2018-03-06T19:41:17.885Z,16.01
2018-03-06T19:43:43.691Z,16.01
2018-03-06T19:46:09.511Z,16.10
2018-03-06T19:48:35.446Z,16.12
2018-03-06T19:51:01.264Z,16.15
2018-03-06T19:53:27.091Z,16.13
2018-03-06T19:55:52.915Z,16.10
2018-03-06T19:58:18.722Z,16.09
2018-03-06T20:00:44.620Z,16.06
2018-03-06T20:03:11.507Z,16.11
2018-03-06T20:05:37.338Z,15.96
2018-03-06T20:08:03.158Z,16.04
2018-03-06T20:10:28.994Z,16.04
2018-03-06T20:12:54.810Z,16.00
2018-03-06T20:15:20.643Z,16.00
2018-03-06T20:17:47.390Z,16.04
2018-03-06T20:20:14.365Z,15.86
2018-03-06T20:22:40.199Z,15.90
2018-03-06T20:25:12.811Z,15.93
2018-03-06T20:27:38.631Z,15.84
2018-03-06T20:30:04.679Z,15.86
2018-03-06T20:32:37.717Z,15.87
2018-03-06T20:35:03.974Z,15.92
2018-03-06T20:37:29.930Z,16.00
2018-03-06T20:40:01.934Z,15.85
2018-03-06T20:42:27.790Z,15.84
2018-03-06T20:44:56.517Z,15.96
2018-03-06T20:47:22.650Z,15.88
2018-03-06T20:49:48.654Z,15.87
2018-03-06T20:52:14.621Z,15.83
2018-03-06T20:54:46.886Z,15.71
2018-03-06T20:57:12.787Z,15.83
2018-03-06T20:59:38.734Z,15.77
2018-03-06T21:02:04.862Z,15.87
2018-03-06T21:04:30.878Z,15.85
2018-03-06T21:06:56.809Z,15.80
2018-03-06T21:09:22.727Z,15.74
2018-03-06T21:11:48.536Z,15.83
2018-03-06T21:14:14.346Z,15.78
2018-03-06T21:16:40.157Z,15.89
2018-03-06T21:19:06.583Z,15.99
2018-03-06T21:21:32.443Z,15.82
2018-03-06T21:23:58.375Z,15.93
2018-03-06T21:26:25.226Z,15.85
2018-03-06T21:28:51.073Z,15.90
2018-03-06T21:31:16.886Z,15.96
2018-03-06T21:33:42.702Z,15.84
2018-03-06T21:36:08.590Z,15.85
2018-03-06T21:38:34.401Z,15.89
2018-03-06T21:41:00.221Z,15.95
2018-03-06T21:43:26.040Z,15.85
2018-03-06T21:45:51.850Z,15.70
2018-03-06T21:48:17.698Z,15.90
2018-03-06T21:50:43.508Z,15.85
2018-03-06T21:53:09.357Z,15.87
2018-03-06T21:55:35.614Z,15.85
2018-03-06T21:58:02.349Z,15.78
2018-03-06T22:00:28.354Z,15.74
2018-03-06T22:02:54.219Z,15.78
2018-03-06T22:05:20.910Z,15.86
2018-03-06T22:07:47.723Z,15.82
2018-03-06T22:10:13.533Z,15.82
2018-03-06T22:12:39.511Z,15.91
2018-03-06T22:15:05.527Z,15.83
2018-03-06T22:17:32.047Z,15.94
2018-03-06T22:19:57.907Z,15.92
2018-03-06T22:22:23.728Z,15.86
2018-03-06T22:24:49.586Z,15.80
2018-03-06T22:27:15.611Z,15.91
2018-03-06T22:29:41.418Z,15.63
2018-03-06T22:32:08.075Z,15.83
2018-03-06T22:34:34.723Z,15.89
2018-03-06T22:37:00.526Z,15.89
2018-03-06T22:39:26.499Z,15.93
2018-03-06T22:41:53.139Z,15.92
2018-03-06T22:44:18.971Z,15.90
2018-03-06T22:46:44.782Z,15.81
2018-03-06T22:49:10.638Z,15.87
2018-03-06T22:51:36.447Z,15.85
2018-03-06T22:54:02.266Z,15.86
2018-03-06T22:56:28.221Z,15.74
2018-03-06T22:58:54.032Z,15.81
2018-03-06T23:01:19.838Z,15.95
2018-03-06T23:03:45.646Z,15.91
2018-03-06T23:06:11.455Z,15.81
2018-03-06T23:08:37.258Z,15.76
2018-03-06T23:11:03.110Z,15.82
2018-03-06T23:13:30.047Z,15.96
2018-03-06T23:15:56.689Z,15.91
2018-03-06T23:18:22.506Z,15.93
2018-03-06T23:20:48.307Z,15.91
2018-03-06T23:23:14.122Z,16.05
2018-03-06T23:25:39.930Z,15.84
2018-03-06T23:28:05.742Z,15.75
2018-03-06T23:30:31.546Z,15.90
2018-03-06T23:32:57.402Z,16.01
2018-03-06T23:35:23.206Z,15.93
2018-03-06T23:37:49.058Z,15.93
2018-03-06T23:45:43.648Z,15.82
2018-03-06T23:48:10.440Z,15.87
2018-03-06T23:50:37.169Z,15.91
2018-03-06T23:53:03.921Z,15.85
2018-03-06T23:55:29.902Z,15.93
2018-03-06T23:57:55.679Z,15.90
